Time;durP1;ratioP1;P1;durP2;ratioP2;P2;SDS_P1;SDS_P2;PMS_P1;PMS_P2;Temp;Humidity;BMP_temperature;BMP_pressure;BME280_temperature;BME280_humidity;BME280_pressure;Samples;Min_cycle;Max_cycle;Signal;HPM_P1;HPM_P2
2024/03/09 00:01:03;;;;;;;59.40;32.83;;;;;;;;;;5093916;28;20107;-63
2024/03/09 00:03:29;;;;;;;52.25;31.33;;;;;;;;;;5092451;28;20035;-63
2024/03/09 00:05:54;;;;;;;92.22;48.53;;;;;;;;;;5092325;28;20036;-64
2024/03/09 00:08:21;;;;;;;129.70;66.25;;;;;;;;;;5094389;28;20046;-63
2024/03/09 00:10:49;;;;;;;100.43;52.33;;;;;;;;;;5096931;28;20111;-63
2024/03/09 00:13:17;;;;;;;102.75;53.85;;;;;;;;;;5096681;28;20140;-63
2024/03/09 00:15:43;;;;;;;96.00;50.47;;;;;;;;;;5097938;28;20039;-63
2024/03/09 00:18:09;;;;;;;96.65;49.67;;;;;;;;;;5098197;28;20068;-63
2024/03/09 00:20:34;;;;;;;94.72;48.42;;;;;;;;;;5097045;28;20052;-63
2024/03/09 00:23:00;;;;;;;71.07;40.15;;;;;;;;;;5097865;28;20016;-63
2024/03/09 00:25:28;;;;;;;61.88;37.50;;;;;;;;;;5098574;22;20512;-63
2024/03/09 00:27:54;;;;;;;63.95;38.83;;;;;;;;;;5077216;28;20029;-63
2024/03/09 00:30:20;;;;;;;60.72;36.15;;;;;;;;;;5077131;28;20094;-63
2024/03/09 00:32:47;;;;;;;60.40;36.60;;;;;;;;;;5077107;28;20457;-64
2024/03/09 00:35:13;;;;;;;56.40;36.65;;;;;;;;;;5059219;28;20535;-63
2024/03/09 00:37:42;;;;;;;55.97;35.58;;;;;;;;;;5077260;22;20404;-69
2024/03/09 00:40:08;;;;;;;54.85;32.85;;;;;;;;;;5059343;28;20029;-70
2024/03/09 00:42:35;;;;;;;56.63;34.28;;;;;;;;;;5059300;28;20029;-70
2024/03/09 00:45:03;;;;;;;52.47;31.17;;;;;;;;;;5058973;28;20021;-70
2024/03/09 00:47:29;;;;;;;52.25;29.85;;;;;;;;;;5058681;28;20028;-69
2024/03/09 00:49:56;;;;;;;51.38;30.40;;;;;;;;;;5059265;28;20086;-69
2024/03/09 00:52:24;;;;;;;56.03;32.55;;;;;;;;;;5058783;28;20024;-69
2024/03/09 00:54:49;;;;;;;55.90;32.22;;;;;;;;;;5076909;28;20029;-69
2024/03/09 00:57:15;;;;;;;58.60;33.25;;;;;;;;;;5076532;28;20486;-69
2024/03/09 00:59:41;;;;;;;68.50;36.63;;;;;;;;;;5076839;28;20044;-69
2024/03/09 01:02:06;;;;;;;63.63;36.75;;;;;;;;;;5076775;28;20027;-70
2024/03/09 01:04:31;;;;;;;62.17;32.65;;;;;;;;;;5076831;28;20069;-70
2024/03/09 01:06:58;;;;;;;67.97;32.95;;;;;;;;;;5076965;28;20025;-70
2024/03/09 01:09:25;;;;;;;90.95;36.88;;;;;;;;;;5076564;28;20044;-70
2024/03/09 01:11:52;;;;;;;114.93;42.58;;;;;;;;;;5076215;28;20033;-71
2024/03/09 01:14:18;;;;;;;75.85;33.53;;;;;;;;;;5076677;28;20079;-72
2024/03/09 01:16:44;;;;;;;76.80;34.13;;;;;;;;;;5076470;28;20037;-69
2024/03/09 01:19:10;;;;;;;71.60;32.03;;;;;;;;;;5075982;28;20032;-68
2024/03/09 01:21:35;;;;;;;53.08;26.92;;;;;;;;;;5058271;28;20037;-69
2024/03/09 01:24:01;;;;;;;52.63;26.95;;;;;;;;;;5076318;28;20025;-71
2024/03/09 01:26:27;;;;;;;40.88;23.10;;;;;;;;;;5076370;28;20040;-70
2024/03/09 01:28:54;;;;;;;37.45;22.77;;;;;;;;;;5076109;28;20113;-70
2024/03/09 01:31:21;;;;;;;33.13;20.33;;;;;;;;;;5076090;28;20046;-70
2024/03/09 01:33:46;;;;;;;33.83;20.92;;;;;;;;;;5076203;28;20115;-70
2024/03/09 01:36:12;;;;;;;30.13;19.10;;;;;;;;;;5074996;28;20103;-69
2024/03/09 01:38:39;;;;;;;34.20;21.23;;;;;;;;;;5058924;28;20076;-70
2024/03/09 01:41:05;;;;;;;33.35;20.17;;;;;;;;;;5038074;28;20036;-70
2024/03/09 01:43:30;;;;;;;36.03;21.92;;;;;;;;;;5056325;28;20021;-70
2024/03/09 01:45:56;;;;;;;36.50;21.40;;;;;;;;;;5056021;28;20063;-70
2024/03/09 01:48:21;;;;;;;48.20;24.88;;;;;;;;;;5055727;28;20061;-71
2024/03/09 01:50:47;;;;;;;43.30;23.05;;;;;;;;;;5037786;28;20040;-69
2024/03/09 01:53:14;;;;;;;45.33;24.60;;;;;;;;;;5038534;28;20072;-68
2024/03/09 01:55:39;;;;;;;54.10;27.60;;;;;;;;;;5038351;28;20028;-68
2024/03/09 01:58:05;;;;;;;51.10;29.02;;;;;;;;;;5055722;28;20526;-68
2024/03/09 02:00:31;;;;;;;46.75;26.25;;;;;;;;;;5037625;28;20056;-69
2024/03/09 02:02:57;;;;;;;46.22;26.15;;;;;;;;;;5020449;28;20047;-69
2024/03/09 02:05:24;;;;;;;49.42;28.73;;;;;;;;;;5054305;28;20029;-70
2024/03/09 02:07:50;;;;;;;52.85;28.83;;;;;;;;;;5054329;28;20032;-67
2024/03/09 02:10:18;;;;;;;56.75;29.15;;;;;;;;;;5037223;28;20033;-64
2024/03/09 02:12:57;;;;;;;61.22;31.17;;;;;;;;;;5037191;28;20032;-64
2024/03/09 02:15:27;;;;;;;59.35;30.25;;;;;;;;;;5036466;28;20039;-64
2024/03/09 02:17:52;;;;;;;59.28;29.63;;;;;;;;;;5054311;28;20032;-63
2024/03/09 02:20:18;;;;;;;67.68;32.35;;;;;;;;;;5055366;28;20021;-64
2024/03/09 02:22:46;;;;;;;62.92;34.42;;;;;;;;;;5055483;28;20025;-64
2024/03/09 02:27:43;;;;;;;52.83;30.02;;;;;;;;;;5108463;22;20052;-68
2024/03/09 02:30:08;;;;;;;45.05;28.08;;;;;;;;;;5095388;28;20024;-68
2024/03/09 02:32:34;;;;;;;39.97;24.98;;;;;;;;;;5094810;28;20114;-69
2024/03/09 02:34:59;;;;;;;42.90;26.83;;;;;;;;;;5095001;28;20035;-69
2024/03/09 02:37:25;;;;;;;43.60;27.42;;;;;;;;;;5093986;28;20074;-69
2024/03/09 02:39:51;;;;;;;45.63;27.88;;;;;;;;;;5094878;28;20114;-70
2024/03/09 02:42:17;;;;;;;51.83;29.13;;;;;;;;;;5095183;28;20021;-70
2024/03/09 02:44:42;;;;;;;48.30;29.33;;;;;;;;;;5093927;28;20076;-70
2024/03/09 02:47:10;;;;;;;62.38;32.25;;;;;;;;;;5095052;28;20023;-69
2024/03/09 02:49:35;;;;;;;60.15;30.85;;;;;;;;;;5095300;28;20028;-69
2024/03/09 02:52:01;;;;;;;55.10;29.65;;;;;;;;;;5094988;28;20039;-70
2024/03/09 02:54:27;;;;;;;56.92;30.88;;;;;;;;;;5094652;28;20020;-70
2024/03/09 02:56:53;;;;;;;54.30;29.63;;;;;;;;;;5108648;22;20054;-65
2024/03/09 02:59:19;;;;;;;52.35;29.15;;;;;;;;;;5094848;28;20024;-65
2024/03/09 03:01:46;;;;;;;49.45;27.05;;;;;;;;;;5094523;28;20345;-65
2024/03/09 03:04:12;;;;;;;44.40;26.23;;;;;;;;;;5094782;28;20024;-64
2024/03/09 03:06:38;;;;;;;50.10;26.17;;;;;;;;;;5076250;28;20544;-64
2024/03/09 03:09:18;;;;;;;48.03;25.65;;;;;;;;;;5094425;28;20089;-63
2024/03/09 03:11:43;;;;;;;48.65;26.05;;;;;;;;;;5094644;28;20052;-64
2024/03/09 03:14:09;;;;;;;41.25;23.30;;;;;;;;;;5094610;28;20032;-64
2024/03/09 03:16:37;;;;;;;42.47;23.58;;;;;;;;;;5094234;28;20089;-64
2024/03/09 03:19:06;;;;;;;43.95;24.48;;;;;;;;;;5094812;28;20036;-64
2024/03/09 03:21:33;;;;;;;46.00;24.25;;;;;;;;;;5075990;28;20042;-63
2024/03/09 03:23:58;;;;;;;44.83;25.92;;;;;;;;;;5094420;28;20028;-63
2024/03/09 03:26:24;;;;;;;47.20;26.08;;;;;;;;;;5075946;28;20079;-63
2024/03/09 03:28:50;;;;;;;50.55;27.35;;;;;;;;;;5094358;28;20119;-65
2024/03/09 03:31:16;;;;;;;52.53;26.88;;;;;;;;;;5094079;28;20043;-65
2024/03/09 03:33:42;;;;;;;48.08;26.23;;;;;;;;;;5094289;28;20028;-65
2024/03/09 03:36:18;;;;;;;49.53;26.50;;;;;;;;;;5075737;28;20402;-65
2024/03/09 03:38:47;;;;;;;48.38;27.88;;;;;;;;;;5092654;28;20055;-67
2024/03/09 03:41:14;;;;;;;38.95;23.40;;;;;;;;;;5091879;28;20467;-68
2024/03/09 03:43:39;;;;;;;38.05;22.27;;;;;;;;;;5090869;28;20059;-65
2024/03/09 03:46:05;;;;;;;38.40;22.90;;;;;;;;;;5091954;28;20043;-65
2024/03/09 03:48:31;;;;;;;37.83;22.65;;;;;;;;;;5091919;28;20503;-65
2024/03/09 03:50:57;;;;;;;35.03;21.17;;;;;;;;;;5091850;28;20017;-65
2024/03/09 03:53:22;;;;;;;36.10;21.83;;;;;;;;;;5091744;28;20430;-65
2024/03/09 03:55:48;;;;;;;33.15;21.42;;;;;;;;;;5073520;28;20035;-65
2024/03/09 03:58:17;;;;;;;35.83;21.13;;;;;;;;;;5091608;28;20040;-66
2024/03/09 04:00:43;;;;;;;35.70;20.40;;;;;;;;;;5092283;28;20052;-65
2024/03/09 04:03:10;;;;;;;38.60;22.83;;;;;;;;;;5092592;28;20059;-66
2024/03/09 04:05:36;;;;;;;37.55;22.00;;;;;;;;;;5092675;28;20032;-65
2024/03/09 04:08:01;;;;;;;38.75;23.20;;;;;;;;;;5092261;28;20395;-64
2024/03/09 04:10:27;;;;;;;35.75;22.52;;;;;;;;;;5092292;28;20097;-64
2024/03/09 04:12:56;;;;;;;40.42;24.08;;;;;;;;;;5092002;28;20035;-64
2024/03/09 04:15:21;;;;;;;40.40;23.58;;;;;;;;;;5075117;28;20032;-65
2024/03/09 04:17:47;;;;;;;38.65;22.52;;;;;;;;;;5093455;28;20391;-65
2024/03/09 04:20:15;;;;;;;37.10;22.88;;;;;;;;;;5094036;28;20441;-65
2024/03/09 04:22:45;;;;;;;39.95;23.10;;;;;;;;;;5093715;28;20452;-65
2024/03/09 04:25:11;;;;;;;38.00;21.95;;;;;;;;;;5093436;28;20029;-69
2024/03/09 04:27:37;;;;;;;40.28;23.88;;;;;;;;;;5108638;22;20056;-65
2024/03/09 04:30:02;;;;;;;37.90;23.63;;;;;;;;;;5084168;22;20079;-65
2024/03/09 04:32:28;;;;;;;38.25;23.05;;;;;;;;;;5088747;28;20029;-66
2024/03/09 04:34:53;;;;;;;43.65;26.42;;;;;;;;;;5073394;28;20032;-66
2024/03/09 04:37:25;;;;;;;40.10;25.15;;;;;;;;;;5073351;28;20033;-66
2024/03/09 04:39:51;;;;;;;41.67;25.73;;;;;;;;;;5073392;28;20031;-65
2024/03/09 04:42:17;;;;;;;37.97;24.38;;;;;;;;;;5072997;28;20017;-68
2024/03/09 04:44:42;;;;;;;39.50;24.90;;;;;;;;;;5055624;28;20070;-67
2024/03/09 04:47:07;;;;;;;40.13;24.20;;;;;;;;;;5055447;28;20036;-68
2024/03/09 04:49:34;;;;;;;39.67;25.92;;;;;;;;;;5071787;28;20067;-67
2024/03/09 04:51:59;;;;;;;43.50;26.13;;;;;;;;;;5072875;28;20040;-67
2024/03/09 04:54:25;;;;;;;40.92;25.17;;;;;;;;;;5072211;28;20029;-67
2024/03/09 04:56:51;;;;;;;39.20;25.52;;;;;;;;;;5075373;28;20067;-67
2024/03/09 04:59:17;;;;;;;43.65;26.98;;;;;;;;;;5076728;28;20106;-65
2024/03/09 05:01:45;;;;;;;45.38;27.25;;;;;;;;;;5076783;28;20067;-66
2024/03/09 05:04:10;;;;;;;52.05;29.42;;;;;;;;;;5076803;28;20035;-66
2024/03/09 05:06:39;;;;;;;63.92;37.38;;;;;;;;;;5058996;28;20393;-65
2024/03/09 05:09:06;;;;;;;59.40;33.83;;;;;;;;;;5076819;28;20033;-65
2024/03/09 05:11:32;;;;;;;54.13;30.80;;;;;;;;;;5076766;28;20036;-65
2024/03/09 05:13:57;;;;;;;52.97;31.02;;;;;;;;;;5076375;28;20029;-65
2024/03/09 05:16:23;;;;;;;50.95;30.45;;;;;;;;;;5076259;28;20062;-66
2024/03/09 05:18:49;;;;;;;52.08;30.17;;;;;;;;;;5058405;28;20071;-65
2024/03/09 05:21:16;;;;;;;48.67;29.63;;;;;;;;;;5076529;28;20012;-66
2024/03/09 05:23:42;;;;;;;56.20;31.25;;;;;;;;;;5076466;28;20093;-66
2024/03/09 05:26:09;;;;;;;59.08;34.17;;;;;;;;;;5058056;28;20379;-64
2024/03/09 05:28:34;;;;;;;64.30;35.47;;;;;;;;;;5058354;28;20052;-64
2024/03/09 05:31:00;;;;;;;67.32;36.78;;;;;;;;;;5075756;28;20036;-67
2024/03/09 05:33:27;;;;;;;61.80;33.30;;;;;;;;;;5058233;28;20063;-66
2024/03/09 05:35:52;;;;;;;59.67;33.17;;;;;;;;;;5076732;28;20032;-66
2024/03/09 05:38:18;;;;;;;53.25;31.25;;;;;;;;;;5076049;28;20028;-66
2024/03/09 05:40:43;;;;;;;50.03;29.45;;;;;;;;;;5075886;28;20392;-66
2024/03/09 05:43:11;;;;;;;48.55;28.75;;;;;;;;;;5058215;28;20051;-66
2024/03/09 05:45:36;;;;;;;45.15;27.67;;;;;;;;;;5075813;28;20067;-65
2024/03/09 05:48:02;;;;;;;44.85;28.00;;;;;;;;;;5076314;28;20052;-65
2024/03/09 05:50:28;;;;;;;44.03;27.52;;;;;;;;;;5058454;28;20448;-68
2024/03/09 05:52:57;;;;;;;47.22;29.45;;;;;;;;;;5075004;28;20135;-68
2024/03/09 05:55:22;;;;;;;51.13;30.13;;;;;;;;;;5041582;28;20064;-68
2024/03/09 05:57:51;;;;;;;61.55;38.17;;;;;;;;;;5076010;28;20511;-68
2024/03/09 06:00:24;;;;;;;54.23;31.20;;;;;;;;;;5076162;28;20028;-68
2024/03/09 06:02:50;;;;;;;55.47;33.35;;;;;;;;;;5040866;28;20426;-69
2024/03/09 06:05:16;;;;;;;57.10;31.90;;;;;;;;;;5075476;28;20103;-69
2024/03/09 06:07:44;;;;;;;61.63;32.97;;;;;;;;;;5074430;28;20073;-69
2024/03/09 06:10:14;;;;;;;73.13;37.53;;;;;;;;;;5075809;28;20028;-69
2024/03/09 06:12:41;;;;;;;63.33;33.57;;;;;;;;;;5075349;28;20464;-69
2024/03/09 06:15:07;;;;;;;101.13;57.15;;;;;;;;;;5075316;28;20047;-69
2024/03/09 06:17:34;;;;;;;70.70;36.95;;;;;;;;;;5075054;28;20032;-69
2024/03/09 06:20:02;;;;;;;63.45;33.20;;;;;;;;;;5057469;28;20029;-69
2024/03/09 06:22:29;;;;;;;68.88;37.60;;;;;;;;;;5075080;28;20115;-69
2024/03/09 06:24:54;;;;;;;63.97;33.50;;;;;;;;;;5075467;28;20038;-67
2024/03/09 06:27:20;;;;;;;50.42;29.55;;;;;;;;;;5075505;28;20024;-69
2024/03/09 06:29:45;;;;;;;50.63;28.38;;;;;;;;;;5059529;28;20051;-69
2024/03/09 06:32:11;;;;;;;49.47;31.02;;;;;;;;;;5077421;28;20032;-65
2024/03/09 06:34:43;;;;;;;82.47;50.08;;;;;;;;;;5095413;28;20043;-68
2024/03/09 06:37:09;;;;;;;48.92;30.65;;;;;;;;;;5095457;28;20487;-67
2024/03/09 06:39:37;;;;;;;47.53;28.85;;;;;;;;;;5095170;28;20024;-67
2024/03/09 06:42:02;;;;;;;42.33;27.17;;;;;;;;;;5095943;28;20069;-66
2024/03/09 06:44:28;;;;;;;49.25;30.75;;;;;;;;;;5094578;28;20107;-66
2024/03/09 06:46:53;;;;;;;38.83;25.08;;;;;;;;;;5077178;28;20035;-69
2024/03/09 06:49:19;;;;;;;41.70;24.42;;;;;;;;;;5094716;28;20141;-63
2024/03/09 06:51:47;;;;;;;40.10;24.60;;;;;;;;;;5076874;28;20039;-62
2024/03/09 06:54:12;;;;;;;38.65;25.55;;;;;;;;;;5094963;28;20376;-62
2024/03/09 06:56:38;;;;;;;84.40;51.15;;;;;;;;;;5076875;28;20115;-61
2024/03/09 06:59:03;;;;;;;42.03;26.65;;;;;;;;;;5060505;28;20403;-62
2024/03/09 07:01:30;;;;;;;49.08;31.85;;;;;;;;;;5077312;28;20047;-62
2024/03/09 07:04:01;;;;;;;62.15;45.03;;;;;;;;;;5094876;28;20445;-62
2024/03/09 07:06:26;;;;;;;;;;;;;;;;;;5094684;28;20106;-61
2024/03/09 07:12:26;;;;;;;37.75;23.25;;;;;;;;;;5071326;28;20246;-62
2024/03/09 07:14:52;;;;;;;48.13;29.83;;;;;;;;;;5072990;28;20020;-62
2024/03/09 07:17:17;;;;;;;52.97;30.02;;;;;;;;;;5073222;28;20036;-61
2024/03/09 07:19:45;;;;;;;34.63;22.40;;;;;;;;;;5072987;28;20050;-62
2024/03/09 07:22:13;;;;;;;32.72;20.17;;;;;;;;;;5073358;28;20028;-62
2024/03/09 07:24:40;;;;;;;33.83;21.10;;;;;;;;;;5074097;28;20027;-61
2024/03/09 07:27:07;;;;;;;28.70;19.27;;;;;;;;;;5074073;28;20060;-61
2024/03/09 07:29:32;;;;;;;34.35;22.42;;;;;;;;;;5075985;28;20028;-62
2024/03/09 07:31:58;;;;;;;32.00;21.77;;;;;;;;;;5094284;28;20429;-62
2024/03/09 07:34:24;;;;;;;34.42;22.80;;;;;;;;;;5094530;28;20471;-61
2024/03/09 07:36:49;;;;;;;27.45;19.20;;;;;;;;;;5076086;28;20433;-61
2024/03/09 07:39:16;;;;;;;29.42;19.02;;;;;;;;;;5085418;28;20494;-61
2024/03/09 07:41:42;;;;;;;29.38;18.75;;;;;;;;;;5073530;28;20127;-62
2024/03/09 07:44:08;;;;;;;31.17;20.75;;;;;;;;;;5073073;28;20542;-61
2024/03/09 07:46:35;;;;;;;31.83;21.17;;;;;;;;;;5072848;28;20036;-62
2024/03/09 07:49:00;;;;;;;25.08;17.55;;;;;;;;;;5090525;28;20467;-61
2024/03/09 07:51:29;;;;;;;29.92;20.23;;;;;;;;;;5090338;28;20063;-62
2024/03/09 07:53:54;;;;;;;26.13;17.63;;;;;;;;;;5089919;28;20085;-62
2024/03/09 07:56:19;;;;;;;29.10;18.45;;;;;;;;;;5089771;28;20021;-70
2024/03/09 07:58:45;;;;;;;28.98;18.58;;;;;;;;;;5090448;28;20376;-64
2024/03/09 08:01:10;;;;;;;26.73;17.88;;;;;;;;;;5091001;28;20055;-64
2024/03/09 08:03:36;;;;;;;24.95;16.15;;;;;;;;;;5090618;28;20392;-72
2024/03/09 08:06:02;;;;;;;26.60;17.48;;;;;;;;;;5090873;28;20441;-73
2024/03/09 08:08:27;;;;;;;27.45;18.13;;;;;;;;;;5091188;28;20032;-71
2024/03/09 08:10:53;;;;;;;28.60;18.55;;;;;;;;;;5091313;28;20571;-71
2024/03/09 08:13:19;;;;;;;22.95;16.38;;;;;;;;;;5072802;28;20089;-71
2024/03/09 08:15:45;;;;;;;28.17;18.63;;;;;;;;;;5090836;28;20047;-70
2024/03/09 08:18:12;;;;;;;31.33;19.17;;;;;;;;;;5055371;28;20075;-70
2024/03/09 08:20:38;;;;;;;27.08;17.92;;;;;;;;;;5091839;28;20032;-70
2024/03/09 08:23:03;;;;;;;27.48;17.73;;;;;;;;;;5091204;28;20538;-71
2024/03/09 08:25:28;;;;;;;28.55;17.48;;;;;;;;;;5091056;28;20024;-74
2024/03/09 08:27:54;;;;;;;37.53;21.88;;;;;;;;;;5072548;28;20032;-73
2024/03/09 08:30:19;;;;;;;23.65;16.55;;;;;;;;;;5074627;28;20140;-72
2024/03/09 08:32:46;;;;;;;23.73;15.35;;;;;;;;;;5094372;28;20032;-73
2024/03/09 08:35:15;;;;;;;24.35;15.27;;;;;;;;;;5094729;28;20444;-72
2024/03/09 08:37:41;;;;;;;19.30;12.20;;;;;;;;;;5096092;28;20050;-72
2024/03/09 08:40:10;;;;;;;20.73;14.18;;;;;;;;;;5095985;28;20016;-73
2024/03/09 08:42:36;;;;;;;18.98;12.93;;;;;;;;;;5095474;28;20066;-73
2024/03/09 08:45:05;;;;;;;15.82;11.57;;;;;;;;;;5076510;28;20032;-73
2024/03/09 08:47:31;;;;;;;15.73;11.00;;;;;;;;;;5095227;28;20404;-72
2024/03/09 08:49:56;;;;;;;18.20;12.00;;;;;;;;;;5095446;28;20047;-72
2024/03/09 08:52:23;;;;;;;17.23;11.20;;;;;;;;;;5077836;28;20034;-72
2024/03/09 08:54:48;;;;;;;20.55;14.05;;;;;;;;;;5076892;28;20039;-72
2024/03/09 08:57:13;;;;;;;18.92;14.13;;;;;;;;;;5059482;28;20403;-72
2024/03/09 08:59:42;;;;;;;16.50;10.93;;;;;;;;;;5094186;28;20391;-72
2024/03/09 09:02:07;;;;;;;18.85;13.43;;;;;;;;;;5075760;28;20028;-72
2024/03/09 09:04:36;;;;;;;32.50;22.05;;;;;;;;;;5075786;28;20481;-72
2024/03/09 09:07:01;;;;;;;27.30;18.70;;;;;;;;;;5094168;28;20097;-71
2024/03/09 09:09:27;;;;;;;22.40;14.68;;;;;;;;;;5093432;28;20464;-71
2024/03/09 09:11:52;;;;;;;18.33;12.48;;;;;;;;;;5094467;28;20040;-74
2024/03/09 09:14:19;;;;;;;24.30;18.25;;;;;;;;;;5076258;28;20036;-74
2024/03/09 09:16:44;;;;;;;26.52;17.83;;;;;;;;;;5075836;28;20089;-73
2024/03/09 09:19:09;;;;;;;13.77;8.45;;;;;;;;;;5093692;28;20028;-73
2024/03/09 09:21:35;;;;;;;15.52;10.63;;;;;;;;;;5076085;28;20058;-73
2024/03/09 09:24:04;;;;;;;13.40;9.90;;;;;;;;;;5094790;28;20508;-73
2024/03/09 09:26:30;;;;;;;12.30;8.13;;;;;;;;;;5098075;28;20012;-76
2024/03/09 09:28:56;;;;;;;12.73;9.50;;;;;;;;;;5079573;28;20693;-74
2024/03/09 09:31:21;;;;;;;11.13;7.35;;;;;;;;;;5076610;28;20044;-63
2024/03/09 09:33:46;;;;;;;13.02;8.85;;;;;;;;;;5098775;28;20035;-69
2024/03/09 09:36:12;;;;;;;9.93;8.40;;;;;;;;;;5094821;28;20092;-70
2024/03/09 09:38:39;;;;;;;12.05;8.48;;;;;;;;;;5058303;28;20494;-67
2024/03/09 09:41:05;;;;;;;11.73;8.65;;;;;;;;;;5091507;28;20099;-67
2024/03/09 09:43:32;;;;;;;11.02;8.68;;;;;;;;;;5093253;28;20027;-67
2024/03/09 09:45:58;;;;;;;11.02;8.80;;;;;;;;;;5075642;28;20111;-76
2024/03/09 09:48:24;;;;;;;11.63;8.35;;;;;;;;;;5075512;28;20135;-68
2024/03/09 09:50:50;;;;;;;14.95;10.43;;;;;;;;;;5093267;28;20547;-68
2024/03/09 09:53:18;;;;;;;12.70;10.05;;;;;;;;;;5093376;28;20119;-73
2024/03/09 09:55:46;;;;;;;8.30;5.93;;;;;;;;;;5094181;28;20048;-73
2024/03/09 09:58:12;;;;;;;12.38;6.72;;;;;;;;;;5092751;28;20040;-73
2024/03/09 10:00:38;;;;;;;10.25;8.23;;;;;;;;;;5092093;28;20034;-73
2024/03/09 10:03:04;;;;;;;11.68;7.85;;;;;;;;;;5074243;28;20039;-74
2024/03/09 10:05:31;;;;;;;13.60;8.75;;;;;;;;;;5074778;28;20483;-68
2024/03/09 10:07:58;;;;;;;13.88;8.65;;;;;;;;;;5074483;28;20028;-69
2024/03/09 10:10:30;;;;;;;10.70;9.27;;;;;;;;;;5092636;28;20104;-69
2024/03/09 10:13:07;;;;;;;9.40;6.88;;;;;;;;;;5092177;28;20044;-69
2024/03/09 10:16:04;;;;;;;10.93;9.13;;;;;;;;;;5092562;28;20044;-69
2024/03/09 10:18:31;;;;;;;9.35;8.25;;;;;;;;;;5072963;28;20426;-69
2024/03/09 10:20:59;;;;;;;11.27;7.38;;;;;;;;;;5057729;28;20078;-69
2024/03/09 10:23:27;;;;;;;10.38;8.68;;;;;;;;;;5074831;28;20024;-70
2024/03/09 10:26:03;;;;;;;10.25;8.07;;;;;;;;;;5092228;28;20040;-59
2024/03/09 10:28:28;;;;;;;10.35;8.05;;;;;;;;;;5092171;28;20479;-59
2024/03/09 10:31:01;;;;;;;10.60;8.45;;;;;;;;;;5091538;28;20047;-58
2024/03/09 10:33:28;;;;;;;9.95;7.55;;;;;;;;;;5092186;28;20494;-59
2024/03/09 10:35:57;;;;;;;10.77;9.63;;;;;;;;;;5091418;28;20040;-60
2024/03/09 10:38:22;;;;;;;11.93;8.73;;;;;;;;;;5092265;28;20119;-58
2024/03/09 10:40:51;;;;;;;15.88;10.55;;;;;;;;;;5091453;28;20926;-60
2024/03/09 10:43:19;;;;;;;10.27;7.22;;;;;;;;;;5073441;28;20123;-55
2024/03/09 10:45:48;;;;;;;9.02;8.07;;;;;;;;;;5074153;28;20020;-55
2024/03/09 10:48:13;;;;;;;8.05;6.22;;;;;;;;;;5056979;28;20024;-58
2024/03/09 10:50:44;;;;;;;11.93;7.90;;;;;;;;;;5092007;28;20047;-58
2024/03/09 10:53:09;;;;;;;;;;;;;;;;;;5092106;28;20522;-73
2024/03/09 10:55:53;;;;;;;10.35;8.50;;;;;;;;;;5073460;28;19912;-69
2024/03/09 10:58:24;;;;;;;9.75;7.28;;;;;;;;;;5091839;28;20245;-71
2024/03/09 11:00:51;;;;;;;6.68;5.97;;;;;;;;;;5056959;28;20119;-68
2024/03/09 11:03:18;;;;;;;6.65;5.57;;;;;;;;;;5091829;28;20020;-68
2024/03/09 11:05:45;;;;;;;6.95;5.57;;;;;;;;;;5091921;28;20387;-71
2024/03/09 11:08:10;;;;;;;11.63;9.15;;;;;;;;;;5091093;28;20508;-67
2024/03/09 11:10:40;;;;;;;10.88;8.73;;;;;;;;;;5071536;28;20031;-67
2024/03/09 11:13:06;;;;;;;11.07;9.98;;;;;;;;;;5071478;28;20039;-67
2024/03/09 11:15:36;;;;;;;9.13;8.20;;;;;;;;;;5071750;28;20379;-61
2024/03/09 11:18:05;;;;;;;3.75;3.38;;;;;;;;;;5071980;28;20028;-61
2024/03/09 11:20:31;;;;;;;7.97;7.18;;;;;;;;;;5090009;28;20032;-61
2024/03/09 11:22:58;;;;;;;7.63;6.38;;;;;;;;;;5090851;28;20027;-61
2024/03/09 11:25:42;;;;;;;5.68;4.28;;;;;;;;;;5090613;28;20578;-61
2024/03/09 11:28:07;;;;;;;6.50;5.90;;;;;;;;;;5090869;28;20028;-61
2024/03/09 11:30:33;;;;;;;5.90;5.30;;;;;;;;;;5091303;28;20089;-61
2024/03/09 11:32:58;;;;;;;10.07;9.05;;;;;;;;;;5091471;28;20055;-61
2024/03/09 11:35:35;;;;;;;5.65;4.90;;;;;;;;;;5091142;28;20434;-61
2024/03/09 11:38:10;;;;;;;10.73;9.13;;;;;;;;;;5090927;28;20522;-61
2024/03/09 11:40:36;;;;;;;8.05;7.13;;;;;;;;;;5072819;28;20028;-61
2024/03/09 11:43:04;;;;;;;4.45;3.55;;;;;;;;;;5091276;28;20032;-61
2024/03/09 11:45:39;;;;;;;6.55;4.65;;;;;;;;;;5090997;28;20139;-62
2024/03/09 11:48:05;;;;;;;4.28;3.70;;;;;;;;;;5090305;28;20078;-62
2024/03/09 11:50:31;;;;;;;6.30;4.90;;;;;;;;;;5089567;28;20027;-62
2024/03/09 11:52:56;;;;;;;5.50;5.00;;;;;;;;;;5072982;28;20034;-62
2024/03/09 11:55:21;;;;;;;6.03;4.28;;;;;;;;;;5072570;28;20376;-62
2024/03/09 11:57:48;;;;;;;6.72;4.57;;;;;;;;;;5072839;28;20044;-62
2024/03/09 12:00:14;;;;;;;4.80;4.38;;;;;;;;;;5090965;28;20036;-62
2024/03/09 12:02:39;;;;;;;6.80;4.70;;;;;;;;;;5091218;28;20036;-62
2024/03/09 12:05:15;;;;;;;5.80;5.20;;;;;;;;;;5090047;28;20147;-61
2024/03/09 12:07:45;;;;;;;6.30;5.70;;;;;;;;;;5090858;28;20028;-61
2024/03/09 12:10:13;;;;;;;7.22;6.00;;;;;;;;;;5091083;28;20032;-63
2024/03/09 12:12:44;;;;;;;10.70;6.90;;;;;;;;;;5091251;28;20139;-62
2024/03/09 12:15:10;;;;;;;10.63;7.57;;;;;;;;;;5090972;28;20078;-63
2024/03/09 12:17:37;;;;;;;10.63;8.02;;;;;;;;;;5089659;28;20028;-62
2024/03/09 12:20:05;;;;;;;8.25;4.47;;;;;;;;;;5089826;28;20119;-63
2024/03/09 12:22:30;;;;;;;8.48;6.57;;;;;;;;;;5090037;28;20115;-63
2024/03/09 12:24:59;;;;;;;6.15;5.50;;;;;;;;;;5090532;28;20127;-62
2024/03/09 12:27:26;;;;;;;5.43;4.53;;;;;;;;;;5072205;28;20035;-63
2024/03/09 12:29:51;;;;;;;6.82;4.80;;;;;;;;;;5089692;28;20115;-63
2024/03/09 12:32:19;;;;;;;11.70;6.45;;;;;;;;;;5071688;28;20549;-63
2024/03/09 12:34:45;;;;;;;11.63;8.40;;;;;;;;;;5090224;28;20028;-65
2024/03/09 12:37:11;;;;;;;8.82;6.35;;;;;;;;;;5089577;28;20125;-63
2024/03/09 12:39:38;;;;;;;5.22;4.82;;;;;;;;;;5090302;28;20692;-63
2024/03/09 12:42:03;;;;;;;4.35;3.03;;;;;;;;;;5072502;28;20016;-63
2024/03/09 12:44:34;;;;;;;11.30;7.57;;;;;;;;;;5090832;28;20039;-63
2024/03/09 12:46:59;;;;;;;14.10;7.75;;;;;;;;;;5090516;28;20375;-63
2024/03/09 12:49:24;;;;;;;7.43;5.45;;;;;;;;;;5090171;28;20034;-62
2024/03/09 12:51:50;;;;;;;8.65;7.57;;;;;;;;;;5089949;28;20036;-63
2024/03/09 12:54:16;;;;;;;11.95;8.00;;;;;;;;;;5072338;28;20031;-62
2024/03/09 12:56:47;;;;;;;8.13;7.10;;;;;;;;;;5090516;28;20042;-64
2024/03/09 12:59:20;;;;;;;8.75;7.85;;;;;;;;;;5081145;28;20107;-62
2024/03/09 13:01:46;;;;;;;12.15;9.10;;;;;;;;;;5035348;28;20029;-62
2024/03/09 13:04:13;;;;;;;8.95;7.95;;;;;;;;;;5069363;28;20039;-62
2024/03/09 13:06:42;;;;;;;11.43;8.63;;;;;;;;;;5070199;28;20029;-62
2024/03/09 13:09:17;;;;;;;10.75;6.32;;;;;;;;;;5051643;28;20094;-62
2024/03/09 13:11:43;;;;;;;15.43;10.05;;;;;;;;;;5072718;28;20024;-69
2024/03/09 13:14:09;;;;;;;9.05;6.95;;;;;;;;;;5061707;28;20383;-69
2024/03/09 13:16:35;;;;;;;16.55;12.93;;;;;;;;;;5090653;28;20028;-69
2024/03/09 13:19:01;;;;;;;18.83;13.27;;;;;;;;;;5093537;28;20020;-69
2024/03/09 13:21:29;;;;;;;17.75;11.60;;;;;;;;;;5075562;28;20437;-62
2024/03/09 13:23:57;;;;;;;14.05;9.70;;;;;;;;;;5075147;28;20035;-68
2024/03/09 13:26:23;;;;;;;9.93;6.45;;;;;;;;;;5093709;28;20032;-68
2024/03/09 13:28:49;;;;;;;11.73;8.88;;;;;;;;;;5093439;28;20026;-69
2024/03/09 13:31:16;;;;;;;13.05;8.40;;;;;;;;;;5093278;28;20044;-69
2024/03/09 13:33:41;;;;;;;18.63;12.27;;;;;;;;;;5058983;28;20103;-69
2024/03/09 13:36:08;;;;;;;18.08;12.30;;;;;;;;;;5093377;28;20416;-68
2024/03/09 13:38:33;;;;;;;29.33;15.40;;;;;;;;;;5093036;28;20027;-68
2024/03/09 13:40:59;;;;;;;16.77;11.07;;;;;;;;;;5074574;28;20062;-62
2024/03/09 13:43:25;;;;;;;27.98;15.70;;;;;;;;;;5093639;28;20028;-71
2024/03/09 13:45:51;;;;;;;21.67;14.20;;;;;;;;;;5093498;28;20123;-68
2024/03/09 13:48:18;;;;;;;18.65;10.20;;;;;;;;;;5057113;28;20036;-68
2024/03/09 13:50:44;;;;;;;28.63;14.30;;;;;;;;;;5074167;28;20040;-69
2024/03/09 13:53:09;;;;;;;22.40;13.45;;;;;;;;;;5092462;28;20063;-78
2024/03/09 13:55:39;;;;;;;19.33;11.18;;;;;;;;;;5092931;28;20141;-67
2024/03/09 13:58:04;;;;;;;24.80;14.27;;;;;;;;;;5090908;28;20067;-66
2024/03/09 14:00:30;;;;;;;23.75;13.73;;;;;;;;;;5095380;28;20070;-64
2024/03/09 14:02:57;;;;;;;28.92;15.25;;;;;;;;;;5077602;28;20020;-64
2024/03/09 14:05:31;;;;;;;19.83;14.15;;;;;;;;;;5095588;28;20044;-63
2024/03/09 14:07:56;;;;;;;26.42;15.25;;;;;;;;;;5094158;28;20029;-64
2024/03/09 14:10:34;;;;;;;27.40;15.63;;;;;;;;;;5075546;28;20068;-64
2024/03/09 14:13:00;;;;;;;24.20;15.55;;;;;;;;;;5093990;28;20064;-64
2024/03/09 14:15:25;;;;;;;21.67;13.45;;;;;;;;;;5075602;28;20080;-64
2024/03/09 14:17:51;;;;;;;24.38;16.20;;;;;;;;;;5093021;28;20444;-64
2024/03/09 14:20:18;;;;;;;23.73;16.55;;;;;;;;;;5092383;28;20028;-64
2024/03/09 14:22:44;;;;;;;25.42;15.90;;;;;;;;;;5092823;28;20028;-64
2024/03/09 14:25:14;;;;;;;22.85;14.13;;;;;;;;;;5092262;28;20028;-64
2024/03/09 14:27:42;;;;;;;23.92;16.95;;;;;;;;;;5092401;28;20111;-64